Hay Lakes, Canada
Current Conditions -  °F | °C
As of 2:00 PM on Saturday 25 Oct 2014 (Local Time) from CYEG Reporting Station
Broken Clouds Broken Clouds  
Wind Chill: 34°   Ceiling: 8000
Heat Index: 43°   Visibility: 15mi
Dew Point: 25°   Wind: 20mph
Humidity: 49%   Direction: 120°ESE
Pressure: 29.82"   Gusts: 25mph
Location:  53.2°N, 113.05°W
Report Text: CYEG 252000Z 12017G22KT 15SM BKN080 BKN210 06/M04 A2982 RMK AC6CI1 SLP128
Loading
Personal Weather Stations






























Interactive Weather Map
Tropical Storm Tracking
New forecast layout! Learn more

10-Day Weather Forecast

Advertisements
Track Severe Weather on mobile